createdAt,value
2019-05-21T00:02:11.175Z,12.30
2019-05-21T00:04:41.657Z,12.30
2019-05-21T00:07:12.186Z,12.20
2019-05-21T00:09:45.764Z,12.20
2019-05-21T00:12:17.965Z,12.20
2019-05-21T00:14:48.499Z,12.30
2019-05-21T00:17:21.696Z,12.30
2019-05-21T00:19:55.244Z,12.30
2019-05-21T00:22:28.804Z,12.30
2019-05-21T00:25:00.107Z,12.30
2019-05-21T00:27:31.190Z,12.30
2019-05-21T00:30:56.156Z,12.30
2019-05-21T00:34:21.013Z,12.30
2019-05-21T00:37:47.172Z,12.30
2019-05-21T00:41:12.275Z,12.30
2019-05-21T00:43:53.298Z,12.40
2019-05-21T00:46:23.946Z,12.40
2019-05-21T00:48:54.483Z,12.40
2019-05-21T00:51:25.102Z,12.40
2019-05-21T00:53:55.617Z,12.40
2019-05-21T00:56:26.159Z,12.40
2019-05-21T00:58:56.652Z,12.50
2019-05-21T01:01:27.252Z,12.50
2019-05-21T01:03:57.829Z,12.60
2019-05-21T01:06:28.404Z,12.60
2019-05-21T01:08:59.014Z,12.70
2019-05-21T01:11:29.673Z,12.60
2019-05-21T01:14:00.202Z,12.60
2019-05-21T01:16:30.714Z,12.70
2019-05-21T01:19:01.334Z,12.70
2019-05-21T01:21:31.887Z,12.80
2019-05-21T01:24:02.484Z,12.80
2019-05-21T01:26:34.019Z,12.90
2019-05-21T01:29:05.283Z,12.90
2019-05-21T01:31:35.858Z,12.90
2019-05-21T01:34:06.477Z,12.90
2019-05-21T01:36:37.019Z,12.90
2019-05-21T01:39:07.922Z,12.90
2019-05-21T01:41:38.316Z,12.90
2019-05-21T01:44:08.839Z,12.90
2019-05-21T01:46:39.375Z,12.90
2019-05-21T01:49:09.871Z,12.80
2019-05-21T01:51:40.865Z,12.80
2019-05-21T01:54:11.405Z,12.80
2019-05-21T01:56:42.010Z,12.70
2019-05-21T01:59:12.528Z,12.70
2019-05-21T02:01:43.799Z,12.70
2019-05-21T02:04:14.337Z,12.60
2019-05-21T02:06:49.212Z,12.60
2019-05-21T02:09:18.751Z,12.50
2019-05-21T02:11:51.104Z,12.50
2019-05-21T02:14:21.722Z,12.40
2019-05-21T02:16:52.361Z,12.40
2019-05-21T02:19:22.827Z,12.30
2019-05-21T02:21:53.340Z,12.30
2019-05-21T02:24:23.814Z,12.30
2019-05-21T02:26:54.908Z,12.20
2019-05-21T02:29:26.519Z,12.20
2019-05-21T02:31:58.148Z,12.10
2019-05-21T02:34:29.375Z,12.10
2019-05-21T02:36:59.890Z,12.10
2019-05-21T02:39:30.467Z,12.00
2019-05-21T02:42:01.213Z,12.00
2019-05-21T02:44:31.835Z,12.00
2019-05-21T02:47:02.269Z,11.90
2019-05-21T02:49:32.817Z,11.90
2019-05-21T02:52:03.479Z,11.90
2019-05-21T02:54:40.679Z,11.90
2019-05-21T02:57:06.783Z,11.80
2019-05-21T02:59:38.000Z,11.80
2019-05-21T03:02:13.067Z,11.80
2019-05-21T03:04:44.450Z,11.80
2019-05-21T03:07:17.879Z,11.70
2019-05-21T03:09:50.312Z,11.70
2019-05-21T03:12:20.974Z,11.70
2019-05-21T03:14:51.554Z,11.70
2019-05-21T03:17:22.216Z,11.60
2019-05-21T03:19:52.723Z,11.60
2019-05-21T03:22:23.180Z,11.60
2019-05-21T03:24:53.653Z,11.60
2019-05-21T03:27:25.051Z,11.60
2019-05-21T03:29:55.615Z,11.60
2019-05-21T03:35:19.400Z,11.50
2019-05-21T03:37:50.034Z,11.40
2019-05-21T03:40:21.512Z,11.30
2019-05-21T03:42:52.133Z,11.40
2019-05-21T03:45:24.186Z,11.30
2019-05-21T03:47:54.740Z,11.40
2019-05-21T03:50:25.307Z,11.40
2019-05-21T03:52:55.872Z,11.40
2019-05-21T03:55:26.529Z,11.40
2019-05-21T03:57:56.919Z,11.40
2019-05-21T04:00:27.489Z,11.50
2019-05-21T04:02:58.015Z,11.50
2019-05-21T04:05:28.843Z,11.40
2019-05-21T04:08:00.091Z,11.50
2019-05-21T04:10:30.664Z,11.50
2019-05-21T04:13:07.871Z,11.70
2019-05-21T04:15:55.268Z,11.80
2019-05-21T04:18:30.013Z,11.90
2019-05-21T04:21:01.519Z,11.90
2019-05-21T04:23:31.979Z,12.00
2019-05-21T04:26:03.675Z,12.20
2019-05-21T04:28:35.074Z,12.30
2019-05-21T04:31:06.198Z,12.40
2019-05-21T04:33:36.692Z,12.50
2019-05-21T04:36:07.217Z,12.60
2019-05-21T04:38:38.254Z,12.70
2019-05-21T04:41:08.798Z,12.90
2019-05-21T04:43:39.806Z,13.10
2019-05-21T04:46:10.501Z,13.50
2019-05-21T04:48:42.079Z,13.90
2019-05-21T04:51:13.956Z,14.00
2019-05-21T04:53:44.965Z,14.40
2019-05-21T04:56:15.484Z,14.70
2019-05-21T04:58:45.939Z,14.90
2019-05-21T05:01:16.418Z,15.20
2019-05-21T05:03:47.381Z,15.40
2019-05-21T05:06:17.971Z,15.70
2019-05-21T05:08:48.832Z,16.00
2019-05-21T05:11:19.394Z,16.30
2019-05-21T05:13:50.735Z,16.60
2019-05-21T05:16:24.362Z,17.00
2019-05-21T05:18:55.391Z,17.50
2019-05-21T05:21:26.938Z,17.90
2019-05-21T05:23:58.349Z,18.60
2019-05-21T05:26:28.980Z,19.60
2019-05-21T05:28:59.966Z,20.30
2019-05-21T05:31:30.462Z,20.90
2019-05-21T05:34:01.823Z,21.20
2019-05-21T05:36:32.989Z,21.90
2019-05-21T05:39:04.685Z,22.40
2019-05-21T05:41:39.066Z,22.70
2019-05-21T05:44:09.717Z,22.70
2019-05-21T05:46:43.661Z,22.80
2019-05-21T05:49:15.863Z,22.70
2019-05-21T05:51:49.668Z,22.60
2019-05-21T05:54:22.402Z,22.90
2019-05-21T05:56:54.399Z,23.00
2019-05-21T05:59:24.890Z,23.20
2019-05-21T06:01:55.442Z,23.40
2019-05-21T06:04:25.940Z,23.10
2019-05-21T06:06:56.528Z,23.10
2019-05-21T06:09:27.352Z,23.30
2019-05-21T06:11:57.950Z,23.60
2019-05-21T06:14:28.503Z,24.30
2019-05-21T06:17:00.323Z,24.90
2019-05-21T06:19:34.206Z,25.20
2019-05-21T06:22:06.841Z,25.60
2019-05-21T06:24:37.764Z,25.20
2019-05-21T06:27:11.460Z,25.30
2019-05-21T06:29:42.959Z,26.20
2019-05-21T06:32:13.943Z,25.90
2019-05-21T06:34:44.581Z,25.70
2019-05-21T06:37:15.187Z,25.30
2019-05-21T06:39:45.635Z,24.90
2019-05-21T06:42:16.881Z,24.20
2019-05-21T06:44:48.441Z,23.70
2019-05-21T06:47:19.343Z,23.40
2019-05-21T06:49:49.867Z,23.60
2019-05-21T06:52:20.448Z,23.70
2019-05-21T06:54:53.495Z,23.30
2019-05-21T06:57:24.019Z,22.80
2019-05-21T06:59:56.917Z,22.50
2019-05-21T07:02:27.405Z,22.60
2019-05-21T07:04:57.956Z,22.70
2019-05-21T07:07:30.681Z,22.60
2019-05-21T07:10:01.176Z,23.00
2019-05-21T07:12:32.982Z,22.90
2019-05-21T07:15:04.346Z,22.70
2019-05-21T07:17:36.508Z,22.60
2019-05-21T07:20:12.844Z,22.60
2019-05-21T07:22:43.543Z,22.50
2019-05-21T07:25:15.513Z,22.40
2019-05-21T07:27:46.436Z,22.60
2019-05-21T07:30:19.621Z,22.60
2019-05-21T07:32:50.302Z,22.60
2019-05-21T07:35:20.924Z,22.30
2019-05-21T07:37:51.551Z,22.30
2019-05-21T07:40:23.847Z,22.10
2019-05-21T07:42:54.367Z,22.10
2019-05-21T07:45:24.946Z,22.40
2019-05-21T07:47:55.455Z,22.40
2019-05-21T07:50:25.957Z,22.50
2019-05-21T07:53:00.469Z,22.30
2019-05-21T07:55:31.812Z,22.40
2019-05-21T07:58:02.266Z,22.80
2019-05-21T08:00:34.161Z,23.20
2019-05-21T08:03:04.766Z,23.70
2019-05-21T08:05:35.291Z,24.60
2019-05-21T08:08:05.966Z,24.70
2019-05-21T08:10:37.435Z,25.30
2019-05-21T08:13:08.501Z,25.70
2019-05-21T08:15:38.987Z,26.00
2019-05-21T08:18:10.763Z,26.70
2019-05-21T08:20:41.332Z,26.30
2019-05-21T08:23:12.386Z,26.90
2019-05-21T08:25:43.323Z,26.80
2019-05-21T08:28:13.893Z,27.30
2019-05-21T08:30:45.144Z,27.10
2019-05-21T08:33:15.785Z,27.80
2019-05-21T08:35:46.377Z,28.10
2019-05-21T08:38:16.874Z,28.40
2019-05-21T08:40:47.685Z,28.40
2019-05-21T08:43:18.316Z,27.60
2019-05-21T08:45:48.830Z,26.70
2019-05-21T08:48:20.862Z,26.80
2019-05-21T08:50:51.408Z,27.80
2019-05-21T08:53:22.366Z,28.50
2019-05-21T08:55:52.957Z,29.20
2019-05-21T08:58:23.519Z,29.60
2019-05-21T09:00:55.310Z,30.20
2019-05-21T09:03:25.961Z,30.70
2019-05-21T09:05:56.891Z,30.20
2019-05-21T09:08:27.482Z,29.50
2019-05-21T09:10:57.989Z,28.90
2019-05-21T09:13:28.525Z,28.60
2019-05-21T09:15:59.137Z,28.70
2019-05-21T09:18:29.787Z,28.70
2019-05-21T09:21:00.409Z,28.50
2019-05-21T09:23:30.981Z,28.60
2019-05-21T09:26:02.121Z,28.40
2019-05-21T09:28:35.909Z,28.10
2019-05-21T09:31:08.699Z,28.00
2019-05-21T09:33:39.340Z,28.00
2019-05-21T09:36:09.888Z,28.20
2019-05-21T09:38:40.859Z,27.80
2019-05-21T09:44:05.834Z,26.90
2019-05-21T09:46:36.483Z,26.70
2019-05-21T09:49:07.160Z,26.40
2019-05-21T09:51:37.738Z,26.20
2019-05-21T09:54:08.753Z,25.90
2019-05-21T09:56:39.548Z,26.10
2019-05-21T09:59:13.398Z,26.70
2019-05-21T10:01:51.777Z,27.10
2019-05-21T10:04:22.443Z,27.40
2019-05-21T10:06:52.981Z,27.20
2019-05-21T10:09:23.642Z,27.70
2019-05-21T10:11:54.323Z,27.70
2019-05-21T10:14:25.097Z,27.50
2019-05-21T10:16:56.959Z,27.20
2019-05-21T10:19:27.504Z,27.30
2019-05-21T10:21:58.294Z,27.20
2019-05-21T10:24:28.987Z,27.30
2019-05-21T10:27:03.296Z,27.20
2019-05-21T10:29:32.410Z,27.10
2019-05-21T10:32:03.931Z,27.20
2019-05-21T10:34:34.867Z,27.30
2019-05-21T10:37:06.131Z,27.00
2019-05-21T10:39:36.762Z,26.90
2019-05-21T10:42:07.404Z,26.80
2019-05-21T10:44:37.883Z,26.50
2019-05-21T10:47:08.475Z,26.50
2019-05-21T10:49:39.712Z,26.10
2019-05-21T10:52:10.203Z,26.00
2019-05-21T10:54:40.834Z,25.80
2019-05-21T10:57:11.597Z,25.50
2019-05-21T10:59:42.741Z,25.40
2019-05-21T11:02:14.902Z,25.30
2019-05-21T11:04:53.017Z,25.20
2019-05-21T11:07:23.858Z,25.20
2019-05-21T11:09:55.191Z,25.20
2019-05-21T11:12:26.221Z,25.20
2019-05-21T11:14:57.459Z,25.20
2019-05-21T11:17:31.096Z,25.20
2019-05-21T11:20:00.666Z,25.10
2019-05-21T11:22:31.325Z,25.10
2019-05-21T11:25:01.735Z,25.00
2019-05-21T11:27:32.395Z,24.80
2019-05-21T11:30:04.759Z,24.50
2019-05-21T11:32:36.288Z,24.40
2019-05-21T11:35:08.963Z,24.40
2019-05-21T11:37:39.603Z,24.30
2019-05-21T11:40:11.589Z,24.30
2019-05-21T11:42:42.054Z,24.40
2019-05-21T11:45:12.954Z,24.40
2019-05-21T11:47:43.504Z,24.20
2019-05-21T11:50:37.925Z,24.20
2019-05-21T11:53:08.518Z,24.20
2019-05-21T11:55:39.553Z,24.40
2019-05-21T11:58:11.054Z,24.60
2019-05-21T12:00:41.815Z,24.50
2019-05-21T12:03:13.163Z,24.20
2019-05-21T12:05:51.864Z,24.10
2019-05-21T12:08:23.147Z,23.90
2019-05-21T12:10:53.797Z,23.70
2019-05-21T12:13:24.342Z,23.70
2019-05-21T12:15:54.928Z,23.80
2019-05-21T12:18:25.465Z,23.60
2019-05-21T12:20:56.060Z,23.40
2019-05-21T12:23:27.550Z,23.10
2019-05-21T12:25:59.515Z,23.10
2019-05-21T12:28:30.050Z,23.20
2019-05-21T12:31:00.946Z,23.20
2019-05-21T12:33:35.161Z,23.30
2019-05-21T12:36:07.211Z,23.40
2019-05-21T12:38:37.699Z,23.40
2019-05-21T12:41:13.215Z,23.20
2019-05-21T12:43:43.977Z,22.90
2019-05-21T12:46:14.583Z,22.90
2019-05-21T12:48:45.568Z,22.70
2019-05-21T12:51:16.878Z,22.50
2019-05-21T12:53:47.544Z,22.20
2019-05-21T12:56:18.626Z,22.00
2019-05-21T12:58:49.909Z,21.90
2019-05-21T13:01:22.176Z,21.80
2019-05-21T13:03:55.387Z,21.60
2019-05-21T13:06:25.000Z,21.60
2019-05-21T13:08:55.545Z,21.50
2019-05-21T13:11:27.053Z,21.50
2019-05-21T13:13:58.083Z,21.60
2019-05-21T13:16:29.876Z,21.70
2019-05-21T13:19:01.697Z,21.80
2019-05-21T13:21:32.323Z,22.00
2019-05-21T13:24:02.951Z,22.10
2019-05-21T13:26:34.025Z,22.40
2019-05-21T13:29:04.773Z,22.30
2019-05-21T13:31:35.302Z,22.30
2019-05-21T13:34:07.005Z,22.40
2019-05-21T13:36:37.634Z,22.30
2019-05-21T13:39:10.160Z,22.40
2019-05-21T13:41:43.721Z,22.30
2019-05-21T13:44:14.299Z,22.10
2019-05-21T13:52:05.727Z,22.10
2019-05-21T13:54:36.399Z,22.20
2019-05-21T13:57:06.961Z,22.50
2019-05-21T13:59:37.602Z,22.60
2019-05-21T14:02:10.442Z,22.50
2019-05-21T14:04:41.151Z,22.50
2019-05-21T14:07:12.656Z,22.50
2019-05-21T14:09:43.605Z,22.40
2019-05-21T14:12:16.805Z,22.40
2019-05-21T14:14:50.527Z,22.40
2019-05-21T14:17:22.387Z,22.30
2019-05-21T14:19:53.042Z,22.20
2019-05-21T14:22:23.834Z,22.10
2019-05-21T14:24:54.545Z,21.90
2019-05-21T14:27:41.533Z,21.70
2019-05-21T14:29:59.538Z,21.60
2019-05-21T14:32:30.364Z,21.50
2019-05-21T14:35:07.091Z,21.40
2019-05-21T14:37:37.872Z,21.30
2019-05-21T14:40:11.566Z,21.30
2019-05-21T14:42:58.085Z,21.20
2019-05-21T14:45:15.034Z,21.20
2019-05-21T14:47:47.886Z,21.00
2019-05-21T14:50:19.037Z,21.10
2019-05-21T14:52:52.237Z,21.00
2019-05-21T14:55:24.362Z,20.90
2019-05-21T14:57:58.727Z,20.80
2019-05-21T15:00:31.566Z,20.60
2019-05-21T15:03:03.748Z,20.60
2019-05-21T15:05:38.141Z,20.40
2019-05-21T15:08:08.951Z,20.30
2019-05-21T15:10:48.432Z,20.30
2019-05-21T15:13:15.133Z,20.30
2019-05-21T15:15:48.917Z,20.30
2019-05-21T15:18:22.360Z,20.30
2019-05-21T15:21:07.433Z,20.20
2019-05-21T15:23:38.732Z,20.20
2019-05-21T15:26:10.720Z,20.20
2019-05-21T15:28:41.819Z,20.10
2019-05-21T15:31:12.751Z,20.10
2019-05-21T15:33:43.323Z,20.10
2019-05-21T15:36:15.012Z,20.10
2019-05-21T15:38:59.991Z,20.00
2019-05-21T15:41:32.211Z,20.00
2019-05-21T15:44:03.561Z,19.90
2019-05-21T15:46:47.845Z,19.80
2019-05-21T15:49:07.328Z,19.80
2019-05-21T15:51:37.878Z,19.80
2019-05-21T15:54:08.521Z,19.70
2019-05-21T15:56:44.582Z,19.60
2019-05-21T15:59:15.270Z,19.50
2019-05-21T16:01:46.551Z,19.50
2019-05-21T16:04:18.474Z,19.40
2019-05-21T16:06:51.048Z,19.40
2019-05-21T16:09:21.755Z,19.30
2019-05-21T16:11:52.807Z,19.30
2019-05-21T16:14:26.891Z,19.20
2019-05-21T16:16:57.899Z,19.10
2019-05-21T16:19:28.818Z,19.00
2019-05-21T16:21:59.519Z,18.90
2019-05-21T16:24:31.689Z,18.80
2019-05-21T16:27:02.678Z,18.70
2019-05-21T16:29:36.364Z,18.60
2019-05-21T16:32:08.542Z,18.50
2019-05-21T16:34:39.269Z,18.40
2019-05-21T16:37:18.353Z,18.40
2019-05-21T16:39:47.307Z,18.30
2019-05-21T16:42:16.870Z,18.20
2019-05-21T16:44:47.430Z,18.20
2019-05-21T16:47:20.542Z,18.20
2019-05-21T16:49:52.874Z,18.10
2019-05-21T16:52:24.424Z,18.10
2019-05-21T16:54:57.549Z,18.10
2019-05-21T16:57:29.097Z,18.00
2019-05-21T17:00:00.128Z,18.00
2019-05-21T17:02:32.078Z,18.00
2019-05-21T17:05:03.819Z,18.00
2019-05-21T17:07:34.898Z,18.00
2019-05-21T17:10:08.610Z,18.00
2019-05-21T17:12:39.514Z,18.00
2019-05-21T17:15:11.871Z,18.00
2019-05-21T17:17:43.173Z,18.00
2019-05-21T17:20:16.194Z,17.90
2019-05-21T17:22:47.038Z,17.90
2019-05-21T17:25:18.891Z,17.90
2019-05-21T17:27:50.639Z,17.90
2019-05-21T17:30:21.702Z,17.90
2019-05-21T17:32:53.963Z,17.80
2019-05-21T17:35:24.622Z,17.80
2019-05-21T17:37:56.182Z,17.70
2019-05-21T17:40:26.764Z,17.70
2019-05-21T17:42:57.905Z,17.70
2019-05-21T17:45:28.557Z,17.60
2019-05-21T17:47:59.224Z,17.60
2019-05-21T17:50:33.700Z,17.50
2019-05-21T17:53:04.720Z,17.50
2019-05-21T17:55:35.832Z,17.50
2019-05-21T17:58:07.125Z,17.40
2019-05-21T18:00:48.315Z,17.30
2019-05-21T18:03:20.217Z,17.30
2019-05-21T18:05:51.368Z,17.30
2019-05-21T18:08:23.158Z,17.20
2019-05-21T18:10:54.303Z,17.20
2019-05-21T18:13:27.396Z,17.20
2019-05-21T18:16:00.065Z,17.10
2019-05-21T18:18:31.683Z,17.10
2019-05-21T18:21:02.366Z,17.00
2019-05-21T18:23:33.024Z,17.00
2019-05-21T18:26:05.072Z,16.90
2019-05-21T18:28:37.246Z,16.90
2019-05-21T18:31:10.354Z,16.90
2019-05-21T18:33:40.693Z,16.80
2019-05-21T18:36:11.667Z,16.80
2019-05-21T18:38:44.007Z,16.70
2019-05-21T18:41:14.703Z,16.70
2019-05-21T18:43:49.912Z,16.70
2019-05-21T18:46:18.294Z,16.60
2019-05-21T18:48:51.588Z,16.60
2019-05-21T18:51:22.662Z,16.60
2019-05-21T18:53:53.459Z,16.50
2019-05-21T18:56:25.563Z,16.60
2019-05-21T18:58:56.151Z,16.50
2019-05-21T19:01:27.387Z,16.50
2019-05-21T19:04:00.328Z,16.50
2019-05-21T19:06:30.984Z,16.50
2019-05-21T19:09:04.198Z,16.50
2019-05-21T19:11:35.580Z,16.50
2019-05-21T19:14:09.447Z,16.50
2019-05-21T19:16:40.452Z,16.50
2019-05-21T19:19:12.815Z,16.50
2019-05-21T19:21:43.449Z,16.50
2019-05-21T19:24:14.488Z,16.50
2019-05-21T19:26:45.210Z,16.40
2019-05-21T19:29:15.867Z,16.40
2019-05-21T19:31:49.325Z,16.40
2019-05-21T19:34:19.892Z,16.40
2019-05-21T19:36:50.502Z,16.30
2019-05-21T19:39:23.493Z,16.30
2019-05-21T19:41:54.790Z,16.30
2019-05-21T19:44:25.492Z,16.30
2019-05-21T19:46:56.803Z,16.20
2019-05-21T19:49:27.849Z,16.20
2019-05-21T19:51:59.578Z,16.10
2019-05-21T19:54:48.682Z,16.20
2019-05-21T19:57:20.156Z,16.20
2019-05-21T19:59:50.861Z,16.10
2019-05-21T20:02:22.844Z,16.10
2019-05-21T20:04:53.875Z,16.00
2019-05-21T20:07:25.805Z,16.00
2019-05-21T20:09:56.690Z,16.00
2019-05-21T20:12:30.480Z,16.00
2019-05-21T20:15:01.248Z,16.00
2019-05-21T20:17:32.957Z,15.90
2019-05-21T20:20:05.066Z,15.80
2019-05-21T20:22:38.064Z,15.80
2019-05-21T20:25:13.495Z,15.70
2019-05-21T20:27:46.032Z,15.70
2019-05-21T20:30:19.004Z,15.70
2019-05-21T20:32:50.559Z,15.70
2019-05-21T20:35:23.064Z,15.70
2019-05-21T20:37:55.409Z,15.70
2019-05-21T20:40:29.280Z,15.70
2019-05-21T20:42:59.961Z,15.70
2019-05-21T20:45:31.617Z,15.70
2019-05-21T20:48:02.776Z,15.70
2019-05-21T20:50:35.083Z,15.60
2019-05-21T20:53:08.778Z,15.60
2019-05-21T20:55:43.520Z,15.60
2019-05-21T20:58:14.577Z,15.50
2019-05-21T21:00:50.292Z,15.50
2019-05-21T21:03:21.051Z,15.50
2019-05-21T21:05:52.312Z,15.50
2019-05-21T21:08:27.687Z,15.50
2019-05-21T21:10:57.074Z,15.50
2019-05-21T21:13:28.728Z,15.40
2019-05-21T21:15:59.943Z,15.40
2019-05-21T21:18:31.544Z,15.40
2019-05-21T21:21:02.424Z,15.40
2019-05-21T21:23:34.997Z,15.40
2019-05-21T21:26:06.054Z,15.40
2019-05-21T21:28:36.892Z,15.40
2019-05-21T21:31:07.971Z,15.30
2019-05-21T21:33:39.595Z,15.30
2019-05-21T21:36:10.164Z,15.30
2019-05-21T21:38:40.945Z,15.30
2019-05-21T21:41:12.713Z,15.30
2019-05-21T21:43:43.256Z,15.30
2019-05-21T21:46:13.795Z,15.20
2019-05-21T21:48:45.788Z,15.20
2019-05-21T21:51:17.608Z,15.20
2019-05-21T21:53:49.006Z,15.20
2019-05-21T21:56:19.882Z,15.20
2019-05-21T21:58:50.295Z,15.20
2019-05-21T22:01:42.006Z,15.20
2019-05-21T22:04:17.334Z,15.20
2019-05-21T22:06:49.560Z,15.10
2019-05-21T22:09:22.194Z,15.10
2019-05-21T22:11:55.309Z,15.10
2019-05-21T22:14:26.810Z,15.10
2019-05-21T22:16:58.455Z,15.10
2019-05-21T22:19:29.067Z,15.00
2019-05-21T22:21:59.911Z,15.00
2019-05-21T22:24:32.463Z,15.00
2019-05-21T22:27:04.267Z,15.00
2019-05-21T22:29:37.135Z,15.00
2019-05-21T22:32:08.054Z,15.00
2019-05-21T22:34:38.883Z,14.90
2019-05-21T22:37:11.582Z,14.90
2019-05-21T22:39:43.016Z,14.90
2019-05-21T22:42:15.853Z,14.90
2019-05-21T22:44:47.275Z,14.90
2019-05-21T22:47:17.967Z,14.80
2019-05-21T22:49:48.351Z,14.80
2019-05-21T22:52:18.880Z,14.80
2019-05-21T22:54:49.442Z,14.80
2019-05-21T22:57:20.203Z,14.70
2019-05-21T22:59:50.934Z,14.70
2019-05-21T23:02:23.160Z,14.70
2019-05-21T23:04:54.038Z,14.70
2019-05-21T23:07:24.544Z,14.70
2019-05-21T23:09:56.282Z,14.60
2019-05-21T23:12:28.784Z,14.60
2019-05-21T23:14:59.408Z,14.50
2019-05-21T23:17:30.302Z,14.50
2019-05-21T23:20:01.523Z,14.50
2019-05-21T23:22:33.087Z,14.40
2019-05-21T23:25:05.630Z,14.30
2019-05-21T23:27:38.766Z,14.30
2019-05-21T23:30:12.511Z,14.30
2019-05-21T23:32:44.266Z,14.20
2019-05-21T23:35:16.635Z,14.20
2019-05-21T23:37:49.065Z,14.20
2019-05-21T23:40:21.654Z,14.10
2019-05-21T23:42:53.524Z,14.10
2019-05-21T23:45:24.536Z,14.00
2019-05-21T23:47:55.601Z,14.00
2019-05-21T23:50:27.863Z,13.90
2019-05-21T23:53:00.099Z,13.90
2019-05-21T23:55:31.439Z,13.90
2019-05-21T23:58:02.101Z,13.80
